createdAt,value
2018-03-23T00:01:45.946Z,91.80
2018-03-23T00:04:13.538Z,91.94
2018-03-23T00:06:41.091Z,91.96
2018-03-23T00:09:09.410Z,92.14
2018-03-23T00:11:37.152Z,92.22
2018-03-23T00:14:04.706Z,92.78
2018-03-23T00:16:32.256Z,92.46
2018-03-23T00:18:59.849Z,92.38
2018-03-23T00:21:27.412Z,92.02
2018-03-23T00:23:54.972Z,91.79
2018-03-23T00:26:22.553Z,91.65
2018-03-23T00:28:50.106Z,91.42
2018-03-23T00:31:17.645Z,91.50
2018-03-23T00:33:45.514Z,90.77
2018-03-23T00:36:13.072Z,90.72
2018-03-23T00:38:40.612Z,90.00
2018-03-23T00:41:08.189Z,90.29
2018-03-23T00:43:35.727Z,89.62
2018-03-23T00:46:03.356Z,88.51
2018-03-23T00:48:30.926Z,88.68
2018-03-23T00:50:58.460Z,87.59
2018-03-23T00:53:25.993Z,86.96
2018-03-23T00:55:53.696Z,87.52
2018-03-23T00:58:21.242Z,87.56
2018-03-23T01:00:48.791Z,85.85
2018-03-23T01:03:16.427Z,86.20
2018-03-23T01:05:43.983Z,86.59
2018-03-23T01:08:11.539Z,86.03
2018-03-23T01:10:39.139Z,85.14
2018-03-23T01:13:06.680Z,84.74
2018-03-23T01:15:34.229Z,83.24
2018-03-23T01:18:01.899Z,83.75
2018-03-23T01:20:29.488Z,83.37
2018-03-23T01:22:57.022Z,84.15
2018-03-23T01:25:24.725Z,81.91
2018-03-23T01:27:52.268Z,80.19
2018-03-23T01:30:19.801Z,81.64
2018-03-23T01:32:47.675Z,81.04
2018-03-23T01:35:15.219Z,81.41
2018-03-23T01:37:42.762Z,82.10
2018-03-23T01:40:10.485Z,82.51
2018-03-23T01:42:38.035Z,81.62
2018-03-23T01:45:05.594Z,81.42
2018-03-23T01:47:33.350Z,81.27
2018-03-23T01:50:00.899Z,81.40
2018-03-23T01:52:28.449Z,81.22
2018-03-23T01:54:56.031Z,82.45
2018-03-23T01:57:29.211Z,81.23
2018-03-23T01:59:56.764Z,81.78
2018-03-23T02:02:24.348Z,81.60
2018-03-23T02:04:51.887Z,83.05
2018-03-23T02:07:19.440Z,84.44
2018-03-23T02:09:47.967Z,85.69
2018-03-23T02:12:15.528Z,86.71
2018-03-23T02:14:43.069Z,86.99
2018-03-23T02:17:10.654Z,87.26
2018-03-23T02:19:39.168Z,87.80
2018-03-23T02:22:07.646Z,87.40
2018-03-23T02:24:35.508Z,88.09
2018-03-23T02:27:03.047Z,88.30
2018-03-23T02:29:31.576Z,88.02
2018-03-23T02:31:59.134Z,87.95
2018-03-23T02:34:26.680Z,87.19
2018-03-23T02:36:55.376Z,86.91
2018-03-23T02:39:22.921Z,86.99
2018-03-23T02:41:50.461Z,87.08
2018-03-23T02:44:18.057Z,87.36
2018-03-23T02:46:45.593Z,87.30
2018-03-23T02:49:13.144Z,86.75
2018-03-23T02:51:40.869Z,86.34
2018-03-23T02:54:08.403Z,85.66
2018-03-23T02:56:35.947Z,85.42
2018-03-23T02:59:04.466Z,85.84
2018-03-23T03:01:32.014Z,85.90
2018-03-23T03:03:59.586Z,85.35
2018-03-23T03:06:27.152Z,85.05
2018-03-23T03:08:54.688Z,84.61
2018-03-23T03:11:22.233Z,85.72
2018-03-23T03:13:49.810Z,84.43
2018-03-23T03:16:17.355Z,84.79
2018-03-23T03:18:44.902Z,85.39
2018-03-23T03:21:12.482Z,86.42
2018-03-23T03:23:40.025Z,86.31
2018-03-23T03:26:07.562Z,86.36
2018-03-23T03:28:35.245Z,86.86
2018-03-23T03:31:02.794Z,86.91
2018-03-23T03:33:31.017Z,86.78
2018-03-23T03:35:58.601Z,86.76
2018-03-23T03:38:26.145Z,86.83
2018-03-23T03:43:27.811Z,87.27
2018-03-23T03:45:55.370Z,87.04
2018-03-23T03:48:23.853Z,87.67
2018-03-23T03:50:52.617Z,87.44
2018-03-23T03:53:20.157Z,87.12
2018-03-23T03:55:47.694Z,86.89
2018-03-23T03:58:15.406Z,86.73
2018-03-23T04:17:58.052Z,87.06
2018-03-23T04:20:25.591Z,87.70
2018-03-23T04:22:53.130Z,87.62
2018-03-23T04:25:20.846Z,88.17
2018-03-23T04:27:48.416Z,87.83
2018-03-23T04:30:15.966Z,87.66
2018-03-23T04:32:43.528Z,88.52
2018-03-23T04:35:11.066Z,88.78
2018-03-23T04:37:39.559Z,89.27
2018-03-23T04:40:07.323Z,88.97
2018-03-23T04:42:34.910Z,88.28
2018-03-23T04:45:02.451Z,87.67
2018-03-23T04:47:30.018Z,87.80
2018-03-23T04:49:57.594Z,86.52
2018-03-23T04:52:25.129Z,86.17
2018-03-23T04:54:52.717Z,87.22
2018-03-23T04:57:20.274Z,86.60
2018-03-23T04:59:47.824Z,85.79
2018-03-23T05:02:15.576Z,86.29
2018-03-23T05:04:43.131Z,85.87
2018-03-23T05:07:10.667Z,85.44
2018-03-23T05:09:38.348Z,85.18
2018-03-23T05:12:05.943Z,84.50
2018-03-23T05:14:33.489Z,84.48
2018-03-23T05:17:01.203Z,83.49
2018-03-23T05:19:28.744Z,82.92
2018-03-23T05:21:56.526Z,84.88
2018-03-23T05:24:24.131Z,84.53
2018-03-23T05:26:52.569Z,83.30
2018-03-23T05:29:20.116Z,84.20
2018-03-23T05:31:47.662Z,83.39
2018-03-23T05:34:15.214Z,83.58
2018-03-23T05:36:42.785Z,82.80
2018-03-23T05:39:10.334Z,84.66
2018-03-23T05:41:38.813Z,84.33
2018-03-23T05:44:06.507Z,83.94
2018-03-23T05:46:34.087Z,83.72
2018-03-23T05:49:01.660Z,82.01
2018-03-23T05:51:29.390Z,83.03
2018-03-23T05:53:56.933Z,81.85
2018-03-23T05:56:24.476Z,81.16
2018-03-23T05:58:52.163Z,80.84
2018-03-23T06:01:19.699Z,79.69
2018-03-23T06:03:47.258Z,78.80
2018-03-23T06:06:14.959Z,80.72
2018-03-23T06:08:42.542Z,83.12
2018-03-23T06:11:10.105Z,82.06
2018-03-23T06:13:37.737Z,80.90
2018-03-23T06:16:05.281Z,77.80
2018-03-23T06:18:32.827Z,79.44
2018-03-23T06:21:00.436Z,79.25
2018-03-23T06:23:27.995Z,80.97
2018-03-23T06:25:55.547Z,81.20
2018-03-23T06:28:23.243Z,79.26
2018-03-23T06:30:50.787Z,77.20
2018-03-23T06:33:18.369Z,79.23
2018-03-23T06:35:46.135Z,77.58
2018-03-23T06:38:13.671Z,78.25
2018-03-23T06:40:41.213Z,77.77
2018-03-23T06:43:09.088Z,77.82
2018-03-23T06:45:36.642Z,78.77
2018-03-23T06:48:04.204Z,80.43
2018-03-23T06:50:31.784Z,75.59
2018-03-23T06:52:59.351Z,79.36
2018-03-23T06:55:26.902Z,78.32
2018-03-23T06:57:54.507Z,77.12
2018-03-23T07:00:23.093Z,77.77
2018-03-23T07:02:50.637Z,78.38
2018-03-23T07:05:18.238Z,74.98
2018-03-23T07:07:45.804Z,77.23
2018-03-23T07:10:13.356Z,77.17
2018-03-23T07:12:40.945Z,76.97
2018-03-23T07:15:08.524Z,77.67
2018-03-23T07:17:36.069Z,78.97
2018-03-23T07:20:03.682Z,77.83
2018-03-23T07:22:31.224Z,77.71
2018-03-23T07:24:58.790Z,76.23
2018-03-23T07:27:26.431Z,77.89
2018-03-23T07:29:53.946Z,73.96
2018-03-23T07:32:21.505Z,75.76
2018-03-23T07:34:49.089Z,74.92
2018-03-23T07:37:17.574Z,73.40
2018-03-23T07:39:46.142Z,72.76
2018-03-23T07:42:14.032Z,73.32
2018-03-23T07:44:41.623Z,74.94
2018-03-23T07:47:09.166Z,69.34
2018-03-23T07:49:36.891Z,70.67
2018-03-23T07:52:05.422Z,72.25
2018-03-23T07:54:32.960Z,71.43
2018-03-23T07:57:00.551Z,71.41
2018-03-23T07:59:28.098Z,70.64
2018-03-23T08:01:55.639Z,71.44
2018-03-23T08:04:23.309Z,71.93
2018-03-23T08:06:50.857Z,72.45
2018-03-23T08:09:18.416Z,70.88
2018-03-23T08:11:45.993Z,73.29
2018-03-23T08:14:13.537Z,71.41
2018-03-23T08:16:41.077Z,71.42
2018-03-23T08:19:09.743Z,72.57
2018-03-23T08:21:37.305Z,69.69
2018-03-23T08:24:04.854Z,68.59
2018-03-23T08:26:32.581Z,67.25
2018-03-23T08:29:01.070Z,64.82
2018-03-23T08:31:28.614Z,61.05
2018-03-23T08:33:56.514Z,66.04
2018-03-23T08:36:24.105Z,61.91
2018-03-23T08:38:51.657Z,64.53
2018-03-23T08:41:19.256Z,62.25
2018-03-23T08:43:46.824Z,62.77
2018-03-23T08:46:14.362Z,60.90
2018-03-23T08:48:42.049Z,60.01
2018-03-23T08:51:09.617Z,58.13
2018-03-23T08:53:37.163Z,59.65
2018-03-23T08:56:04.759Z,60.71
2018-03-23T08:58:33.301Z,62.07
2018-03-23T09:01:07.967Z,61.83
2018-03-23T09:03:35.532Z,62.74
